sensor_id;sensor_type;location;lat;lon;timestamp;pressure;altitude;pressure_sealevel;temperature;humidity
7802;BME280;3945;48.952;9.506;2023-07-28T00:00:05;97221.31;;;17.37;100.00
7802;BME280;3945;48.952;9.506;2023-07-28T00:02:31;97226.22;;;17.35;100.00
7802;BME280;3945;48.952;9.506;2023-07-28T00:04:59;97221.91;;;17.34;100.00
7802;BME280;3945;48.952;9.506;2023-07-28T00:07:26;97216.34;;;17.30;100.00
7802;BME280;3945;48.952;9.506;2023-07-28T00:09:52;97221.25;;;17.28;100.00
7802;BME280;3945;48.952;9.506;2023-07-28T00:12:18;97218.84;;;17.27;100.00
7802;BME280;3945;48.952;9.506;2023-07-28T00:14:46;97224.00;;;17.23;100.00
7802;BME280;3945;48.952;9.506;2023-07-28T00:17:13;97225.09;;;17.22;100.00
7802;BME280;3945;48.952;9.506;2023-07-28T00:19:39;97224.91;;;17.18;100.00
7802;BME280;3945;48.952;9.506;2023-07-28T00:22:07;97233.78;;;17.19;100.00
7802;BME280;3945;48.952;9.506;2023-07-28T00:24:33;97231.41;;;17.17;100.00
7802;BME280;3945;48.952;9.506;2023-07-28T00:26:59;97222.22;;;17.18;100.00
7802;BME280;3945;48.952;9.506;2023-07-28T00:29:25;97216.34;;;17.16;100.00
7802;BME280;3945;48.952;9.506;2023-07-28T00:31:52;97219.84;;;17.17;100.00
7802;BME280;3945;48.952;9.506;2023-07-28T00:34:18;97210.47;;;17.14;100.00
7802;BME280;3945;48.952;9.506;2023-07-28T00:36:44;97214.47;;;17.17;100.00
7802;BME280;3945;48.952;9.506;2023-07-28T00:39:12;97216.66;;;17.15;100.00
7802;BME280;3945;48.952;9.506;2023-07-28T00:41:38;97215.84;;;17.14;100.00
7802;BME280;3945;48.952;9.506;2023-07-28T00:44:05;97219.75;;;17.08;100.00
7802;BME280;3945;48.952;9.506;2023-07-28T00:46:31;97210.06;;;17.07;100.00
7802;BME280;3945;48.952;9.506;2023-07-28T00:48:57;97212.28;;;17.05;100.00
7802;BME280;3945;48.952;9.506;2023-07-28T00:51:24;97198.06;;;17.05;100.00
7802;BME280;3945;48.952;9.506;2023-07-28T00:53:51;97202.13;;;17.02;100.00
7802;BME280;3945;48.952;9.506;2023-07-28T00:56:19;97203.84;;;16.98;100.00
7802;BME280;3945;48.952;9.506;2023-07-28T00:58:46;97208.69;;;16.96;100.00
7802;BME280;3945;48.952;9.506;2023-07-28T01:01:12;97206.13;;;16.91;100.00
7802;BME280;3945;48.952;9.506;2023-07-28T01:03:39;97217.34;;;16.93;100.00
7802;BME280;3945;48.952;9.506;2023-07-28T01:06:14;97214.19;;;16.91;100.00
7802;BME280;3945;48.952;9.506;2023-07-28T01:08:46;97214.47;;;16.90;100.00
7802;BME280;3945;48.952;9.506;2023-07-28T01:11:13;97215.56;;;16.89;100.00
7802;BME280;3945;48.952;9.506;2023-07-28T01:13:41;97220.44;;;16.87;100.00
7802;BME280;3945;48.952;9.506;2023-07-28T01:16:07;97216.25;;;16.81;100.00
7802;BME280;3945;48.952;9.506;2023-07-28T01:18:34;97216.06;;;16.77;100.00
7802;BME280;3945;48.952;9.506;2023-07-28T01:21:01;97217.47;;;16.74;100.00
7802;BME280;3945;48.952;9.506;2023-07-28T01:23:33;97216.94;;;16.72;100.00
7802;BME280;3945;48.952;9.506;2023-07-28T01:26:03;97222.94;;;16.69;100.00
7802;BME280;3945;48.952;9.506;2023-07-28T01:28:33;97217.06;;;16.67;100.00
7802;BME280;3945;48.952;9.506;2023-07-28T01:30:59;97218.16;;;16.66;100.00
7802;BME280;3945;48.952;9.506;2023-07-28T01:33:25;97215.16;;;16.68;100.00
7802;BME280;3945;48.952;9.506;2023-07-28T01:35:52;97217.34;;;16.66;100.00
7802;BME280;3945;48.952;9.506;2023-07-28T01:38:18;97207.69;;;16.65;100.00
7802;BME280;3945;48.952;9.506;2023-07-28T01:40:44;97207.25;;;16.58;100.00
7802;BME280;3945;48.952;9.506;2023-07-28T01:43:11;97207.25;;;16.58;100.00
7802;BME280;3945;48.952;9.506;2023-07-28T01:45:39;97206.44;;;16.57;100.00
7802;BME280;3945;48.952;9.506;2023-07-28T01:48:05;97208.44;;;16.52;100.00
7802;BME280;3945;48.952;9.506;2023-07-28T01:50:33;97202.56;;;16.50;100.00
7802;BME280;3945;48.952;9.506;2023-07-28T01:53:00;97202.88;;;16.48;100.00
7802;BME280;3945;48.952;9.506;2023-07-28T01:55:26;97200.25;;;16.43;100.00
7802;BME280;3945;48.952;9.506;2023-07-28T01:57:54;97214.81;;;16.42;100.00
7802;BME280;3945;48.952;9.506;2023-07-28T02:00:20;97210.81;;;16.39;100.00
7802;BME280;3945;48.952;9.506;2023-07-28T02:02:48;97207.63;;;16.37;100.00
7802;BME280;3945;48.952;9.506;2023-07-28T02:05:15;97206.34;;;16.35;100.00
7802;BME280;3945;48.952;9.506;2023-07-28T02:07:41;97208.50;;;16.33;100.00
7802;BME280;3945;48.952;9.506;2023-07-28T02:10:08;97197.88;;;16.28;100.00
7802;BME280;3945;48.952;9.506;2023-07-28T02:12:35;97204.63;;;16.25;100.00
7802;BME280;3945;48.952;9.506;2023-07-28T02:15:01;97209.38;;;16.28;100.00
7802;BME280;3945;48.952;9.506;2023-07-28T02:17:28;97204.34;;;16.27;100.00
7802;BME280;3945;48.952;9.506;2023-07-28T02:19:56;97210.50;;;16.27;100.00
7802;BME280;3945;48.952;9.506;2023-07-28T02:22:22;97212.56;;;16.30;100.00
7802;BME280;3945;48.952;9.506;2023-07-28T02:24:48;97200.75;;;16.31;100.00
7802;BME280;3945;48.952;9.506;2023-07-28T02:27:15;97204.75;;;16.34;100.00
7802;BME280;3945;48.952;9.506;2023-07-28T02:29:41;97204.13;;;16.37;100.00
7802;BME280;3945;48.952;9.506;2023-07-28T02:32:08;97206.53;;;16.38;100.00
7802;BME280;3945;48.952;9.506;2023-07-28T02:34:34;97199.78;;;16.41;100.00
7802;BME280;3945;48.952;9.506;2023-07-28T02:37:02;97204.25;;;16.46;100.00
7802;BME280;3945;48.952;9.506;2023-07-28T02:39:28;97209.13;;;16.44;100.00
7802;BME280;3945;48.952;9.506;2023-07-28T02:41:55;97206.16;;;16.45;100.00
7802;BME280;3945;48.952;9.506;2023-07-28T02:44:21;97218.50;;;16.46;100.00
7802;BME280;3945;48.952;9.506;2023-07-28T02:46:47;97216.09;;;16.45;100.00
7802;BME280;3945;48.952;9.506;2023-07-28T02:49:13;97211.31;;;16.42;100.00
7802;BME280;3945;48.952;9.506;2023-07-28T02:51:40;97216.28;;;16.34;100.00
7802;BME280;3945;48.952;9.506;2023-07-28T02:54:08;97218.97;;;16.34;100.00
7802;BME280;3945;48.952;9.506;2023-07-28T02:56:34;97218.66;;;16.36;100.00
7802;BME280;3945;48.952;9.506;2023-07-28T02:59:02;97216.47;;;16.38;100.00
7802;BME280;3945;48.952;9.506;2023-07-28T03:01:29;97230.69;;;16.38;100.00
7802;BME280;3945;48.952;9.506;2023-07-28T03:03:58;97228.81;;;16.39;100.00
7802;BME280;3945;48.952;9.506;2023-07-28T03:06:24;97228.31;;;16.37;100.00
7802;BME280;3945;48.952;9.506;2023-07-28T03:08:50;97233.38;;;16.38;100.00
7802;BME280;3945;48.952;9.506;2023-07-28T03:11:18;97234.19;;;16.39;100.00
7802;BME280;3945;48.952;9.506;2023-07-28T03:13:44;97246.53;;;16.40;100.00
7802;BME280;3945;48.952;9.506;2023-07-28T03:16:11;97242.75;;;16.41;100.00
7802;BME280;3945;48.952;9.506;2023-07-28T03:18:37;97255.88;;;16.42;100.00
7802;BME280;3945;48.952;9.506;2023-07-28T03:21:03;97253.97;;;16.43;100.00
7802;BME280;3945;48.952;9.506;2023-07-28T03:23:30;97253.19;;;16.42;100.00
7802;BME280;3945;48.952;9.506;2023-07-28T03:25:56;97260.16;;;16.44;100.00
7802;BME280;3945;48.952;9.506;2023-07-28T03:28:24;97266.59;;;16.42;100.00
7802;BME280;3945;48.952;9.506;2023-07-28T03:30:50;97266.13;;;16.40;100.00
7802;BME280;3945;48.952;9.506;2023-07-28T03:33:17;97265.91;;;16.37;100.00
7802;BME280;3945;48.952;9.506;2023-07-28T03:35:43;97278.84;;;16.35;100.00
7802;BME280;3945;48.952;9.506;2023-07-28T03:38:09;97289.59;;;16.35;100.00
7802;BME280;3945;48.952;9.506;2023-07-28T03:40:36;97291.97;;;16.36;100.00
7802;BME280;3945;48.952;9.506;2023-07-28T03:43:02;97296.53;;;16.36;100.00
7802;BME280;3945;48.952;9.506;2023-07-28T03:45:30;97292.75;;;16.37;100.00
7802;BME280;3945;48.952;9.506;2023-07-28T03:47:56;97294.88;;;16.40;100.00
7802;BME280;3945;48.952;9.506;2023-07-28T03:50:23;97305.59;;;16.40;100.00
7802;BME280;3945;48.952;9.506;2023-07-28T03:52:51;97291.91;;;16.42;100.00
7802;BME280;3945;48.952;9.506;2023-07-28T03:55:17;97299.94;;;16.42;100.00
7802;BME280;3945;48.952;9.506;2023-07-28T03:57:44;97305.81;;;16.44;100.00
7802;BME280;3945;48.952;9.506;2023-07-28T04:00:10;97311.41;;;16.47;100.00
7802;BME280;3945;48.952;9.506;2023-07-28T04:02:38;97317.56;;;16.48;100.00
7802;BME280;3945;48.952;9.506;2023-07-28T04:05:04;97310.00;;;16.50;100.00
7802;BME280;3945;48.952;9.506;2023-07-28T04:07:31;97310.81;;;16.50;100.00
7802;BME280;3945;48.952;9.506;2023-07-28T04:09:57;97310.00;;;16.50;100.00
7802;BME280;3945;48.952;9.506;2023-07-28T04:12:23;97300.78;;;16.56;100.00
7802;BME280;3945;48.952;9.506;2023-07-28T04:14:50;97298.97;;;16.51;100.00
7802;BME280;3945;48.952;9.506;2023-07-28T04:17:16;97296.56;;;16.50;100.00
7802;BME280;3945;48.952;9.506;2023-07-28T04:19:44;97293.88;;;16.50;100.00
7802;BME280;3945;48.952;9.506;2023-07-28T04:22:10;97284.75;;;16.51;100.00
7802;BME280;3945;48.952;9.506;2023-07-28T04:24:37;97294.41;;;16.52;100.00
7802;BME280;3945;48.952;9.506;2023-07-28T04:27:03;97299.19;;;16.55;100.00
7802;BME280;3945;48.952;9.506;2023-07-28T04:29:29;97286.34;;;16.52;100.00
7802;BME280;3945;48.952;9.506;2023-07-28T04:31:56;97304.34;;;16.51;100.00
7802;BME280;3945;48.952;9.506;2023-07-28T04:34:23;97296.00;;;16.53;100.00
7802;BME280;3945;48.952;9.506;2023-07-28T04:36:50;97291.13;;;16.55;100.00
7802;BME280;3945;48.952;9.506;2023-07-28T04:39:17;97284.16;;;16.54;100.00
7802;BME280;3945;48.952;9.506;2023-07-28T04:41:43;97291.44;;;16.53;100.00
7802;BME280;3945;48.952;9.506;2023-07-28T04:44:09;97291.13;;;16.55;100.00
7802;BME280;3945;48.952;9.506;2023-07-28T04:46:36;97290.84;;;16.56;100.00
7802;BME280;3945;48.952;9.506;2023-07-28T04:49:02;97297.03;;;16.57;100.00
7802;BME280;3945;48.952;9.506;2023-07-28T04:51:28;97281.38;;;16.59;100.00
7802;BME280;3945;48.952;9.506;2023-07-28T04:53:56;97283.53;;;16.62;100.00
7802;BME280;3945;48.952;9.506;2023-07-28T04:56:22;97282.72;;;16.61;100.00
7802;BME280;3945;48.952;9.506;2023-07-28T04:58:49;97288.59;;;16.63;100.00
7802;BME280;3945;48.952;9.506;2023-07-28T05:01:15;97274.06;;;16.64;100.00
7802;BME280;3945;48.952;9.506;2023-07-28T05:03:41;97269.19;;;16.66;100.00
7802;BME280;3945;48.952;9.506;2023-07-28T05:06:07;97274.00;;;16.69;100.00
7802;BME280;3945;48.952;9.506;2023-07-28T05:08:34;97279.56;;;16.73;100.00
7802;BME280;3945;48.952;9.506;2023-07-28T05:11:02;97282.75;;;16.75;100.00
7802;BME280;3945;48.952;9.506;2023-07-28T05:13:29;97289.91;;;16.79;100.00
7802;BME280;3945;48.952;9.506;2023-07-28T05:15:55;97293.09;;;16.82;100.00
7802;BME280;3945;48.952;9.506;2023-07-28T05:18:21;97295.22;;;16.85;100.00
7802;BME280;3945;48.952;9.506;2023-07-28T05:20:48;97289.53;;;16.86;100.00
7802;BME280;3945;48.952;9.506;2023-07-28T05:23:14;97289.22;;;16.88;100.00
7802;BME280;3945;48.952;9.506;2023-07-28T05:25:40;97288.94;;;16.89;100.00
7802;BME280;3945;48.952;9.506;2023-07-28T05:28:08;97294.81;;;16.91;100.00
7802;BME280;3945;48.952;9.506;2023-07-28T05:30:35;97303.38;;;16.93;100.00
7802;BME280;3945;48.952;9.506;2023-07-28T05:33:01;97304.16;;;16.94;100.00
7802;BME280;3945;48.952;9.506;2023-07-28T05:35:27;97306.56;;;16.95;100.00
7802;BME280;3945;48.952;9.506;2023-07-28T05:37:54;97299.00;;;16.97;100.00
7802;BME280;3945;48.952;9.506;2023-07-28T05:40:20;97304.91;;;16.99;100.00
7802;BME280;3945;48.952;9.506;2023-07-28T05:42:46;97305.38;;;17.01;100.00
7802;BME280;3945;48.952;9.506;2023-07-28T05:45:14;97308.56;;;17.03;100.00
7802;BME280;3945;48.952;9.506;2023-07-28T05:47:41;97310.69;;;17.06;100.00
7802;BME280;3945;48.952;9.506;2023-07-28T05:50:07;97320.31;;;17.07;100.00
7802;BME280;3945;48.952;9.506;2023-07-28T05:52:34;97324.53;;;17.13;100.00
7802;BME280;3945;48.952;9.506;2023-07-28T05:55:00;97321.50;;;17.15;100.00
7802;BME280;3945;48.952;9.506;2023-07-28T05:57:26;97331.69;;;17.18;100.00
7802;BME280;3945;48.952;9.506;2023-07-28T05:59:52;97329.97;;;17.22;100.00
7802;BME280;3945;48.952;9.506;2023-07-28T06:02:20;97328.31;;;17.26;100.00
7802;BME280;3945;48.952;9.506;2023-07-28T06:04:47;97334.19;;;17.28;100.00
7802;BME280;3945;48.952;9.506;2023-07-28T06:07:13;97329.00;;;17.32;100.00
7802;BME280;3945;48.952;9.506;2023-07-28T06:09:39;97334.88;;;17.34;100.00
7802;BME280;3945;48.952;9.506;2023-07-28T06:12:06;97342.06;;;17.38;100.00
7802;BME280;3945;48.952;9.506;2023-07-28T06:14:32;97340.16;;;17.39;100.00
7802;BME280;3945;48.952;9.506;2023-07-28T06:16:59;97341.47;;;17.41;100.00
7802;BME280;3945;48.952;9.506;2023-07-28T06:19:26;97350.34;;;17.42;100.00
7802;BME280;3945;48.952;9.506;2023-07-28T06:21:53;97345.75;;;17.42;100.00
7802;BME280;3945;48.952;9.506;2023-07-28T06:24:19;97345.44;;;17.44;100.00
7802;BME280;3945;48.952;9.506;2023-07-28T06:26:46;97343.53;;;17.44;100.00
7802;BME280;3945;48.952;9.506;2023-07-28T06:29:12;97357.78;;;17.45;100.00
7802;BME280;3945;48.952;9.506;2023-07-28T06:31:38;97359.91;;;17.48;100.00
7802;BME280;3945;48.952;9.506;2023-07-28T06:34:05;97370.94;;;17.46;100.00
7802;BME280;3945;48.952;9.506;2023-07-28T06:36:33;97367.69;;;17.49;100.00
7802;BME280;3945;48.952;9.506;2023-07-28T06:38:59;97364.66;;;17.51;100.00
7802;BME280;3945;48.952;9.506;2023-07-28T06:41:25;97366.75;;;17.54;100.00
7802;BME280;3945;48.952;9.506;2023-07-28T06:43:51;97371.84;;;17.55;100.00
7802;BME280;3945;48.952;9.506;2023-07-28T06:46:18;97365.84;;;17.58;100.00
7802;BME280;3945;48.952;9.506;2023-07-28T06:48:44;97368.56;;;17.58;100.00
7802;BME280;3945;48.952;9.506;2023-07-28T06:51:10;97380.91;;;17.60;100.00
7802;BME280;3945;48.952;9.506;2023-07-28T06:53:38;97378.22;;;17.60;100.00
7802;BME280;3945;48.952;9.506;2023-07-28T06:56:05;97382.00;;;17.58;100.00
7802;BME280;3945;48.952;9.506;2023-07-28T06:58:31;97377.97;;;17.61;100.00
7802;BME280;3945;48.952;9.506;2023-07-28T07:00:57;97384.13;;;17.62;100.00
7802;BME280;3945;48.952;9.506;2023-07-28T07:03:24;97405.84;;;17.65;100.00
7802;BME280;3945;48.952;9.506;2023-07-28T07:05:50;97398.56;;;17.66;100.00
7802;BME280;3945;48.952;9.506;2023-07-28T07:08:16;97395.09;;;17.65;100.00
7802;BME280;3945;48.952;9.506;2023-07-28T07:10:48;97387.81;;;17.66;100.00
7802;BME280;3945;48.952;9.506;2023-07-28T07:13:15;97383.44;;;17.70;100.00
7802;BME280;3945;48.952;9.506;2023-07-28T07:15:41;97378.25;;;17.73;100.00
7802;BME280;3945;48.952;9.506;2023-07-28T07:18:08;97391.63;;;17.78;100.00
7802;BME280;3945;48.952;9.506;2023-07-28T07:20:34;97383.13;;;17.85;100.00
7802;BME280;3945;48.952;9.506;2023-07-28T07:23:00;97384.31;;;17.92;100.00
7802;BME280;3945;48.952;9.506;2023-07-28T07:25:27;97388.69;;;18.02;100.00
7802;BME280;3945;48.952;9.506;2023-07-28T07:27:55;97392.47;;;18.15;100.00
7802;BME280;3945;48.952;9.506;2023-07-28T07:30:21;97388.44;;;18.26;100.00
7802;BME280;3945;48.952;9.506;2023-07-28T07:32:48;97389.13;;;18.31;100.00
7802;BME280;3945;48.952;9.506;2023-07-28T07:35:14;97390.13;;;18.36;100.00
7802;BME280;3945;48.952;9.506;2023-07-28T07:37:40;97391.38;;;18.38;100.00
7802;BME280;3945;48.952;9.506;2023-07-28T07:40:07;97392.09;;;18.44;100.00
7802;BME280;3945;48.952;9.506;2023-07-28T07:42:39;97396.34;;;18.45;100.00
7802;BME280;3945;48.952;9.506;2023-07-28T07:45:08;97402.88;;;18.44;100.00
7802;BME280;3945;48.952;9.506;2023-07-28T07:47:35;97404.94;;;18.47;100.00
7802;BME280;3945;48.952;9.506;2023-07-28T07:50:01;97411.25;;;18.56;100.00
7802;BME280;3945;48.952;9.506;2023-07-28T07:52:28;97412.22;;;18.60;100.00
7802;BME280;3945;48.952;9.506;2023-07-28T07:54:54;97412.72;;;18.62;100.00
7802;BME280;3945;48.952;9.506;2023-07-28T07:57:20;97410.03;;;18.62;100.00
7802;BME280;3945;48.952;9.506;2023-07-28T07:59:47;97407.53;;;18.65;100.00
7802;BME280;3945;48.952;9.506;2023-07-28T08:02:15;97412.91;;;18.65;100.00
7802;BME280;3945;48.952;9.506;2023-07-28T08:04:41;97416.38;;;18.66;100.00
7802;BME280;3945;48.952;9.506;2023-07-28T08:07:08;97422.91;;;18.65;100.00
7802;BME280;3945;48.952;9.506;2023-07-28T08:09:34;97418.59;;;18.64;100.00
7802;BME280;3945;48.952;9.506;2023-07-28T08:12:02;97427.97;;;18.66;100.00
7802;BME280;3945;48.952;9.506;2023-07-28T08:14:29;97421.19;;;18.69;100.00
7802;BME280;3945;48.952;9.506;2023-07-28T08:16:57;97428.16;;;18.70;100.00
7802;BME280;3945;48.952;9.506;2023-07-28T08:19:24;97424.66;;;18.69;100.00
7802;BME280;3945;48.952;9.506;2023-07-28T08:21:51;97430.06;;;18.69;100.00
7802;BME280;3945;48.952;9.506;2023-07-28T08:24:17;97433.84;;;18.68;100.00
7802;BME280;3945;48.952;9.506;2023-07-28T08:26:45;97438.94;;;18.70;100.00
7802;BME280;3945;48.952;9.506;2023-07-28T08:29:11;97448.34;;;18.73;100.00
7802;BME280;3945;48.952;9.506;2023-07-28T08:31:38;97443.41;;;18.75;100.00
7802;BME280;3945;48.952;9.506;2023-07-28T08:34:04;97450.09;;;18.77;100.00
7802;BME280;3945;48.952;9.506;2023-07-28T08:36:32;97450.59;;;18.79;100.00
7802;BME280;3945;48.952;9.506;2023-07-28T08:38:58;97449.97;;;18.82;100.00
7802;BME280;3945;48.952;9.506;2023-07-28T08:41:25;97456.66;;;18.85;100.00
7802;BME280;3945;48.952;9.506;2023-07-28T08:43:52;97457.75;;;18.84;100.00
7802;BME280;3945;48.952;9.506;2023-07-28T08:46:59;97454.56;;;18.82;100.00
7802;BME280;3945;48.952;9.506;2023-07-28T08:49:23;97460.47;;;18.84;100.00
7802;BME280;3945;48.952;9.506;2023-07-28T08:52:13;97453.84;;;18.90;100.00
7802;BME280;3945;48.952;9.506;2023-07-28T08:54:46;97465.50;;;18.99;100.00
7802;BME280;3945;48.952;9.506;2023-07-28T08:57:15;97467.91;;;19.00;100.00
7802;BME280;3945;48.952;9.506;2023-07-28T08:59:47;97463.34;;;19.09;100.00
7802;BME280;3945;48.952;9.506;2023-07-28T09:02:18;97472.22;;;19.10;100.00
7802;BME280;3945;48.952;9.506;2023-07-28T09:04:45;97468.44;;;19.11;100.00
7802;BME280;3945;48.952;9.506;2023-07-28T09:07:16;97469.91;;;19.17;100.00
7802;BME280;3945;48.952;9.506;2023-07-28T09:09:46;97469.78;;;19.22;100.00
7802;BME280;3945;48.952;9.506;2023-07-28T09:12:16;97468.84;;;19.27;100.00
7802;BME280;3945;48.952;9.506;2023-07-28T09:14:47;97474.00;;;19.37;100.00
7802;BME280;3945;48.952;9.506;2023-07-28T09:17:18;97473.66;;;19.52;100.00
7802;BME280;3945;48.952;9.506;2023-07-28T09:19:51;97474.94;;;19.55;100.00
7802;BME280;3945;48.952;9.506;2023-07-28T09:22:23;97471.91;;;19.56;100.00
7802;BME280;3945;48.952;9.506;2023-07-28T09:24:50;97468.78;;;19.63;100.00
7802;BME280;3945;48.952;9.506;2023-07-28T09:27:20;97471.31;;;19.59;100.00
7802;BME280;3945;48.952;9.506;2023-07-28T09:29:47;97463.38;;;19.63;100.00
7802;BME280;3945;48.952;9.506;2023-07-28T09:32:13;97472.44;;;19.67;100.00
7802;BME280;3945;48.952;9.506;2023-07-28T09:34:40;97465.81;;;19.73;100.00
7802;BME280;3945;48.952;9.506;2023-07-28T09:37:06;97469.78;;;19.75;100.00
7802;BME280;3945;48.952;9.506;2023-07-28T09:39:36;97468.72;;;19.85;100.00
7802;BME280;3945;48.952;9.506;2023-07-28T09:42:03;97466.06;;;19.94;100.00
7802;BME280;3945;48.952;9.506;2023-07-28T09:44:32;97460.53;;;20.07;100.00
7802;BME280;3945;48.952;9.506;2023-07-28T09:46:59;97462.50;;;20.24;100.00
7802;BME280;3945;48.952;9.506;2023-07-28T09:49:27;97458.44;;;20.44;100.00
7802;BME280;3945;48.952;9.506;2023-07-28T09:51:54;97455.91;;;20.73;100.00
7802;BME280;3945;48.952;9.506;2023-07-28T09:54:24;97462.09;;;20.82;98.82
7802;BME280;3945;48.952;9.506;2023-07-28T09:56:56;97464.34;;;20.80;96.68
7802;BME280;3945;48.952;9.506;2023-07-28T09:59:24;97465.78;;;20.86;97.82
7802;BME280;3945;48.952;9.506;2023-07-28T10:01:54;97462.09;;;20.99;95.50
7802;BME280;3945;48.952;9.506;2023-07-28T10:04:22;97463.06;;;21.21;96.51
7802;BME280;3945;48.952;9.506;2023-07-28T10:06:48;97465.59;;;21.26;94.52
7802;BME280;3945;48.952;9.506;2023-07-28T10:09:15;97461.78;;;21.35;95.40
7802;BME280;3945;48.952;9.506;2023-07-28T10:11:42;97460.44;;;21.59;96.56
7802;BME280;3945;48.952;9.506;2023-07-28T10:14:10;97463.13;;;21.67;93.11
7802;BME280;3945;48.952;9.506;2023-07-28T10:16:51;97463.88;;;21.76;92.08
7802;BME280;3945;48.952;9.506;2023-07-28T10:19:19;97460.66;;;21.83;93.22
7802;BME280;3945;48.952;9.506;2023-07-28T10:21:45;97469.25;;;21.85;92.34
7802;BME280;3945;48.952;9.506;2023-07-28T10:24:12;97464.03;;;21.80;90.12
7802;BME280;3945;48.952;9.506;2023-07-28T10:26:40;97480.50;;;21.66;89.77
7802;BME280;3945;48.952;9.506;2023-07-28T10:29:07;97475.88;;;21.58;89.90
7802;BME280;3945;48.952;9.506;2023-07-28T10:31:35;97474.28;;;21.66;92.74
7802;BME280;3945;48.952;9.506;2023-07-28T10:34:02;97476.47;;;21.72;93.70
7802;BME280;3945;48.952;9.506;2023-07-28T10:36:32;97473.56;;;21.86;94.39
7802;BME280;3945;48.952;9.506;2023-07-28T10:38:59;97465.25;;;22.00;91.71
7802;BME280;3945;48.952;9.506;2023-07-28T10:41:28;97476.66;;;22.14;90.42
7802;BME280;3945;48.952;9.506;2023-07-28T10:43:55;97470.13;;;22.15;87.89
7802;BME280;3945;48.952;9.506;2023-07-28T10:46:22;97471.03;;;22.19;88.05
7802;BME280;3945;48.952;9.506;2023-07-28T10:48:50;97470.06;;;22.24;86.42
7802;BME280;3945;48.952;9.506;2023-07-28T10:51:20;97468.81;;;22.21;85.20
7802;BME280;3945;48.952;9.506;2023-07-28T10:53:49;97472.19;;;22.18;84.09
7802;BME280;3945;48.952;9.506;2023-07-28T10:56:15;97474.91;;;22.18;85.60
7802;BME280;3945;48.952;9.506;2023-07-28T10:58:42;97472.22;;;22.09;83.84
7802;BME280;3945;48.952;9.506;2023-07-28T11:01:08;97469.22;;;22.02;83.07
7802;BME280;3945;48.952;9.506;2023-07-28T11:03:35;97474.81;;;21.97;84.63
7802;BME280;3945;48.952;9.506;2023-07-28T11:06:02;97468.31;;;21.90;84.68
7802;BME280;3945;48.952;9.506;2023-07-28T11:08:29;97475.00;;;21.83;83.95
7802;BME280;3945;48.952;9.506;2023-07-28T11:10:55;97481.41;;;21.70;83.57
7802;BME280;3945;48.952;9.506;2023-07-28T11:13:22;97470.78;;;21.57;81.88
7802;BME280;3945;48.952;9.506;2023-07-28T11:15:50;97476.06;;;21.53;84.85
7802;BME280;3945;48.952;9.506;2023-07-28T11:18:16;97481.63;;;21.48;84.70
7802;BME280;3945;48.952;9.506;2023-07-28T11:20:43;97489.63;;;21.45;85.77
7802;BME280;3945;48.952;9.506;2023-07-28T11:23:13;97489.16;;;21.42;85.53
7802;BME280;3945;48.952;9.506;2023-07-28T11:25:39;97492.03;;;21.37;85.93
7802;BME280;3945;48.952;9.506;2023-07-28T11:28:07;97492.34;;;21.36;85.00
7802;BME280;3945;48.952;9.506;2023-07-28T11:30:35;97495.84;;;21.36;84.38
7802;BME280;3945;48.952;9.506;2023-07-28T11:33:02;97498.25;;;21.38;83.69
7802;BME280;3945;48.952;9.506;2023-07-28T11:35:29;97499.84;;;21.39;83.81
7802;BME280;3945;48.952;9.506;2023-07-28T11:37:56;97499.03;;;21.38;84.20
7802;BME280;3945;48.952;9.506;2023-07-28T11:40:24;97498.56;;;21.36;84.83
7802;BME280;3945;48.952;9.506;2023-07-28T11:42:52;97503.16;;;21.36;87.14
7802;BME280;3945;48.952;9.506;2023-07-28T11:45:19;97503.00;;;21.32;86.58
7802;BME280;3945;48.952;9.506;2023-07-28T11:47:56;97505.41;;;21.34;86.37
7802;BME280;3945;48.952;9.506;2023-07-28T11:50:23;97506.84;;;21.31;85.83
7802;BME280;3945;48.952;9.506;2023-07-28T11:52:50;97507.00;;;21.35;87.39
7802;BME280;3945;48.952;9.506;2023-07-28T11:55:16;97502.38;;;21.44;85.42
7802;BME280;3945;48.952;9.506;2023-07-28T11:57:47;97497.25;;;21.51;85.67
7802;BME280;3945;48.952;9.506;2023-07-28T12:00:13;97498.50;;;21.62;88.40
7802;BME280;3945;48.952;9.506;2023-07-28T12:02:43;97494.97;;;21.70;85.75
7802;BME280;3945;48.952;9.506;2023-07-28T12:05:13;97489.03;;;21.77;85.29
7802;BME280;3945;48.952;9.506;2023-07-28T12:07:40;97491.09;;;21.89;85.45
7802;BME280;3945;48.952;9.506;2023-07-28T12:10:07;97486.41;;;22.06;87.43
7802;BME280;3945;48.952;9.506;2023-07-28T12:12:41;97490.50;;;22.21;85.48
7802;BME280;3945;48.952;9.506;2023-07-28T12:18:09;97481.81;;;22.36;83.07
7802;BME280;3945;48.952;9.506;2023-07-28T12:20:36;97481.59;;;22.41;84.29
7802;BME280;3945;48.952;9.506;2023-07-28T12:23:03;97478.25;;;22.44;84.19
7802;BME280;3945;48.952;9.506;2023-07-28T12:25:30;97481.88;;;22.48;84.42
7802;BME280;3945;48.952;9.506;2023-07-28T12:27:56;97482.34;;;22.50;83.13
7802;BME280;3945;48.952;9.506;2023-07-28T12:30:23;97481.88;;;22.48;83.71
7802;BME280;3945;48.952;9.506;2023-07-28T12:32:50;97484.25;;;22.50;83.45
7802;BME280;3945;48.952;9.506;2023-07-28T12:35:17;97482.81;;;22.52;83.35
7802;BME280;3945;48.952;9.506;2023-07-28T12:37:46;97474.69;;;22.52;83.84
7802;BME280;3945;48.952;9.506;2023-07-28T12:40:12;97482.94;;;22.56;84.16
7802;BME280;3945;48.952;9.506;2023-07-28T12:42:38;97482.94;;;22.56;84.19
7802;BME280;3945;48.952;9.506;2023-07-28T12:45:05;97481.22;;;22.51;84.00
7802;BME280;3945;48.952;9.506;2023-07-28T12:47:32;97492.41;;;22.50;84.02
7802;BME280;3945;48.952;9.506;2023-07-28T12:49:58;97495.78;;;22.47;84.56
7802;BME280;3945;48.952;9.506;2023-07-28T12:52:26;97499.47;;;22.42;84.39
7802;BME280;3945;48.952;9.506;2023-07-28T12:54:52;97502.56;;;22.32;84.91
7802;BME280;3945;48.952;9.506;2023-07-28T12:57:18;97500.38;;;22.26;85.16
7802;BME280;3945;48.952;9.506;2023-07-28T12:59:45;97508.81;;;22.24;87.10
7802;BME280;3945;48.952;9.506;2023-07-28T13:02:11;97506.75;;;22.21;86.36
7802;BME280;3945;48.952;9.506;2023-07-28T13:04:38;97501.22;;;22.17;86.90
7802;BME280;3945;48.952;9.506;2023-07-28T13:07:04;97501.84;;;22.14;88.34
7802;BME280;3945;48.952;9.506;2023-07-28T13:09:32;97501.53;;;22.16;88.84
7802;BME280;3945;48.952;9.506;2023-07-28T13:11:58;97506.78;;;22.12;88.00
7802;BME280;3945;48.952;9.506;2023-07-28T13:14:25;97509.06;;;22.10;87.13
7802;BME280;3945;48.952;9.506;2023-07-28T13:16:51;97503.66;;;22.02;86.98